createdAt,value
2018-11-12T00:01:41.799Z,13.90
2018-11-12T00:04:10.135Z,13.90
2018-11-12T00:06:38.497Z,13.90
2018-11-12T00:09:08.143Z,14.00
2018-11-12T00:11:36.504Z,14.00
2018-11-12T00:14:05.426Z,14.00
2018-11-12T00:16:33.816Z,14.00
2018-11-12T00:19:02.156Z,14.00
2018-11-12T00:21:30.532Z,14.00
2018-11-12T00:23:59.075Z,14.00
2018-11-12T00:26:27.442Z,14.00
2018-11-12T00:28:56.106Z,13.90
2018-11-12T00:31:24.544Z,13.90
2018-11-12T00:33:52.910Z,14.00
2018-11-12T00:36:21.419Z,13.90
2018-11-12T00:38:49.937Z,14.00
2018-11-12T00:41:18.298Z,14.00
2018-11-12T00:43:46.678Z,14.00
2018-11-12T00:46:15.012Z,13.90
2018-11-12T00:48:43.398Z,13.90
2018-11-12T00:51:11.814Z,13.90
2018-11-12T00:53:40.259Z,13.90
2018-11-12T00:56:08.621Z,13.90
2018-11-12T00:58:36.988Z,13.90
2018-11-12T01:01:05.777Z,13.80
2018-11-12T01:03:35.090Z,13.80
2018-11-12T01:06:03.512Z,13.70
2018-11-12T01:08:31.876Z,13.70
2018-11-12T01:11:00.315Z,13.70
2018-11-12T01:13:28.732Z,13.70
2018-11-12T01:15:57.093Z,13.70
2018-11-12T01:18:25.466Z,13.70
2018-11-12T01:20:53.819Z,13.70
2018-11-12T01:23:22.258Z,13.70
2018-11-12T01:25:50.620Z,13.70
2018-11-12T01:28:18.962Z,13.70
2018-11-12T01:30:47.298Z,13.70
2018-11-12T01:33:15.639Z,13.60
2018-11-12T01:35:43.966Z,13.60
2018-11-12T01:38:12.430Z,13.60
2018-11-12T01:40:40.775Z,13.60
2018-11-12T01:43:09.113Z,13.60
2018-11-12T01:45:37.439Z,13.60
2018-11-12T01:48:05.790Z,13.60
2018-11-12T01:50:34.113Z,13.60
2018-11-12T01:53:02.487Z,13.60
2018-11-12T01:55:30.820Z,13.60
2018-11-12T01:57:59.387Z,13.60
2018-11-12T02:00:27.799Z,13.60
2018-11-12T02:02:56.141Z,13.60
2018-11-12T02:05:24.500Z,13.60
2018-11-12T02:07:52.817Z,13.60
2018-11-12T02:10:21.190Z,13.60
2018-11-12T02:12:49.522Z,13.60
2018-11-12T02:15:19.278Z,13.60
2018-11-12T02:17:48.259Z,13.60
2018-11-12T02:20:17.999Z,13.70
2018-11-12T02:22:47.258Z,13.70
2018-11-12T02:25:16.171Z,13.70
2018-11-12T02:27:44.860Z,13.70
2018-11-12T02:30:15.589Z,13.80
2018-11-12T02:32:43.932Z,13.80
2018-11-12T02:35:12.305Z,13.80
2018-11-12T02:37:41.147Z,13.90
2018-11-12T02:40:11.567Z,13.90
2018-11-12T02:42:40.239Z,14.00
2018-11-12T02:45:09.451Z,14.00
2018-11-12T02:47:38.116Z,14.00
2018-11-12T02:50:07.677Z,14.10
2018-11-12T02:52:36.091Z,14.10
2018-11-12T02:55:05.103Z,14.20
2018-11-12T02:57:33.621Z,14.20
2018-11-12T03:00:01.952Z,14.10
2018-11-12T03:02:30.397Z,14.10
2018-11-12T03:04:58.797Z,14.00
2018-11-12T03:07:27.237Z,14.00
2018-11-12T03:09:55.626Z,14.00
2018-11-12T03:12:23.991Z,14.00
2018-11-12T03:14:52.383Z,14.10
2018-11-12T03:17:20.743Z,14.10
2018-11-12T03:19:49.100Z,14.00
2018-11-12T03:22:17.427Z,14.10
2018-11-12T03:24:45.787Z,14.00
2018-11-12T03:27:14.163Z,14.10
2018-11-12T03:29:42.742Z,14.20
2018-11-12T03:32:11.090Z,14.20
2018-11-12T03:34:39.450Z,14.20
2018-11-12T03:37:08.187Z,14.20
2018-11-12T03:39:36.589Z,14.30
2018-11-12T03:42:05.480Z,14.30
2018-11-12T03:44:33.812Z,14.30
2018-11-12T03:47:02.158Z,14.30
2018-11-12T03:49:30.503Z,14.30
2018-11-12T03:51:59.054Z,14.40
2018-11-12T03:54:27.410Z,14.30
2018-11-12T03:56:55.777Z,14.30
2018-11-12T03:59:24.115Z,14.40
2018-11-12T04:01:52.475Z,14.50
2018-11-12T04:04:20.805Z,14.50
2018-11-12T04:06:49.168Z,14.40
2018-11-12T04:09:17.519Z,14.50
2018-11-12T04:11:46.215Z,14.50
2018-11-12T04:14:14.754Z,14.50
2018-11-12T04:16:45.007Z,14.50
2018-11-12T04:19:13.355Z,14.60
2018-11-12T04:21:41.756Z,14.50
2018-11-12T04:24:10.137Z,14.50
2018-11-12T04:26:38.577Z,14.40
2018-11-12T04:29:06.987Z,14.40
2018-11-12T04:31:35.356Z,14.50
2018-11-12T04:34:03.774Z,14.50
2018-11-12T04:36:32.161Z,14.40
2018-11-12T04:39:00.499Z,14.40
2018-11-12T04:41:28.879Z,14.30
2018-11-12T04:43:57.260Z,14.20
2018-11-12T04:46:25.612Z,14.30
2018-11-12T04:48:53.972Z,14.30
2018-11-12T04:51:22.459Z,14.40
2018-11-12T04:53:50.958Z,14.50
2018-11-12T04:56:20.535Z,14.60
2018-11-12T04:58:48.943Z,14.60
2018-11-12T05:01:17.363Z,14.70
2018-11-12T05:03:45.761Z,14.70
2018-11-12T05:06:14.295Z,14.70
2018-11-12T05:08:42.704Z,14.70
2018-11-12T05:11:11.066Z,14.80
2018-11-12T05:13:39.447Z,14.80
2018-11-12T05:16:07.870Z,14.80
2018-11-12T05:18:36.240Z,14.80
2018-11-12T05:21:05.011Z,14.90
2018-11-12T05:23:33.404Z,14.80
2018-11-12T05:26:02.219Z,14.80
2018-11-12T05:28:30.567Z,14.80
2018-11-12T05:30:58.955Z,14.90
2018-11-12T05:33:27.382Z,14.90
2018-11-12T05:35:55.751Z,14.80
2018-11-12T05:38:24.173Z,14.80
2018-11-12T05:40:52.478Z,14.80
2018-11-12T05:43:20.811Z,14.80
2018-11-12T05:45:49.181Z,14.80
2018-11-12T05:48:17.525Z,14.80
2018-11-12T05:50:45.867Z,14.80
2018-11-12T05:53:14.210Z,14.80
2018-11-12T05:55:42.772Z,14.80
2018-11-12T05:58:11.171Z,14.80
2018-11-12T06:00:39.547Z,14.80
2018-11-12T06:03:07.879Z,14.70
2018-11-12T06:05:36.362Z,14.70
2018-11-12T06:08:04.755Z,14.70
2018-11-12T06:10:34.129Z,14.70
2018-11-12T06:13:02.472Z,14.70
2018-11-12T06:15:30.898Z,14.70
2018-11-12T06:17:59.274Z,14.70
2018-11-12T06:20:29.020Z,14.70
2018-11-12T06:22:57.455Z,14.70
2018-11-12T06:25:28.290Z,14.70
2018-11-12T06:27:57.162Z,14.70
2018-11-12T06:30:28.148Z,14.60
2018-11-12T06:32:56.588Z,14.70
2018-11-12T06:35:24.971Z,14.70
2018-11-12T06:37:53.858Z,14.70
2018-11-12T06:40:23.483Z,14.70
2018-11-12T06:42:52.288Z,14.70
2018-11-12T06:45:22.092Z,14.70
2018-11-12T06:47:51.295Z,14.70
2018-11-12T06:50:21.097Z,14.60
2018-11-12T06:52:49.686Z,14.60
2018-11-12T06:55:18.755Z,14.60
2018-11-12T06:57:47.562Z,14.60
2018-11-12T07:00:20.242Z,14.60
2018-11-12T07:02:48.635Z,14.70
2018-11-12T07:05:17.279Z,14.70
2018-11-12T07:07:46.037Z,14.70
2018-11-12T07:10:15.734Z,14.80
2018-11-12T07:12:45.098Z,14.80
2018-11-12T07:15:15.043Z,14.90
2018-11-12T07:17:43.627Z,14.90
2018-11-12T07:20:13.552Z,14.90
2018-11-12T07:22:43.443Z,14.80
2018-11-12T07:25:12.825Z,14.90
2018-11-12T07:27:41.214Z,15.00
2018-11-12T07:30:18.696Z,15.00
2018-11-12T07:32:47.715Z,15.00
2018-11-12T07:35:16.778Z,15.00
2018-11-12T07:37:46.327Z,15.00
2018-11-12T07:40:15.510Z,15.00
2018-11-12T07:42:44.664Z,15.00
2018-11-12T07:45:15.862Z,15.00
2018-11-12T07:47:45.187Z,15.00
2018-11-12T07:50:15.895Z,15.10
2018-11-12T07:52:44.443Z,15.20
2018-11-12T07:55:14.691Z,15.20
2018-11-12T07:57:43.725Z,15.30
2018-11-12T08:00:15.433Z,15.30
2018-11-12T08:02:45.252Z,15.30
2018-11-12T08:05:14.183Z,15.30
2018-11-12T08:07:43.343Z,15.30
2018-11-12T08:10:13.170Z,15.40
2018-11-12T08:12:42.122Z,15.40
2018-11-12T08:15:12.079Z,15.40
2018-11-12T08:17:40.542Z,15.30
2018-11-12T08:20:10.987Z,15.20
2018-11-12T08:22:39.367Z,15.20
2018-11-12T08:25:08.982Z,15.20
2018-11-12T08:27:37.444Z,15.20
2018-11-12T08:30:08.566Z,15.30
2018-11-12T08:32:36.716Z,15.30
2018-11-12T08:35:05.160Z,15.40
2018-11-12T08:37:33.548Z,15.50
2018-11-12T08:40:02.719Z,15.50
2018-11-12T08:42:32.198Z,15.60
2018-11-12T08:45:07.879Z,15.60
2018-11-12T08:47:36.856Z,15.60
2018-11-12T08:50:07.705Z,15.70
2018-11-12T08:52:36.021Z,15.70
2018-11-12T08:55:04.595Z,15.70
2018-11-12T08:57:32.997Z,15.70
2018-11-12T09:00:01.430Z,15.80
2018-11-12T09:02:29.803Z,15.90
2018-11-12T09:04:58.222Z,15.80
2018-11-12T09:07:26.642Z,15.80
2018-11-12T09:09:55.015Z,15.80
2018-11-12T09:12:23.412Z,15.80
2018-11-12T09:14:51.735Z,15.60
2018-11-12T09:17:20.198Z,15.60
2018-11-12T09:19:48.779Z,15.60
2018-11-12T09:22:17.206Z,15.60
2018-11-12T09:24:45.637Z,15.60
2018-11-12T09:27:14.099Z,15.60
2018-11-12T09:29:42.632Z,15.60
2018-11-12T09:32:10.918Z,15.70
2018-11-12T09:34:39.315Z,15.80
2018-11-12T09:37:08.001Z,15.80
2018-11-12T09:39:36.407Z,15.80
2018-11-12T09:42:05.008Z,15.80
2018-11-12T09:44:33.410Z,15.90
2018-11-12T09:47:01.815Z,15.90
2018-11-12T09:49:30.283Z,16.00
2018-11-12T09:51:58.773Z,16.00
2018-11-12T09:54:27.383Z,16.10
2018-11-12T09:56:55.710Z,16.20
2018-11-12T09:59:24.207Z,16.20
2018-11-12T10:01:53.441Z,16.20
2018-11-12T10:04:21.922Z,16.30
2018-11-12T10:06:50.926Z,16.30
2018-11-12T10:09:20.191Z,16.30
2018-11-12T10:11:48.584Z,16.40
2018-11-12T10:14:16.936Z,16.40
2018-11-12T10:16:45.827Z,16.40
2018-11-12T10:19:11.851Z,16.50
2018-11-12T10:21:40.244Z,16.50
2018-11-12T10:24:08.672Z,16.60
2018-11-12T10:26:37.038Z,16.50
2018-11-12T10:29:05.738Z,16.60
2018-11-12T10:31:34.118Z,16.70
2018-11-12T10:34:03.107Z,16.60
2018-11-12T10:36:31.500Z,16.60
2018-11-12T10:39:00.558Z,16.50
2018-11-12T10:41:29.150Z,16.60
2018-11-12T10:43:57.508Z,16.60
2018-11-12T10:46:25.876Z,16.60
2018-11-12T10:48:54.309Z,16.50
2018-11-12T10:51:22.790Z,16.50
2018-11-12T10:53:51.199Z,16.50
2018-11-12T10:56:19.575Z,16.50
2018-11-12T10:58:47.931Z,16.50
2018-11-12T11:01:18.196Z,16.60
2018-11-12T11:03:50.891Z,16.50
2018-11-12T11:06:19.273Z,16.50
2018-11-12T11:08:47.670Z,16.60
2018-11-12T11:11:16.103Z,16.60
2018-11-12T11:13:44.490Z,16.50
2018-11-12T11:16:13.030Z,16.50
2018-11-12T11:18:41.486Z,16.50
2018-11-12T11:21:09.871Z,16.60
2018-11-12T11:23:38.309Z,16.60
2018-11-12T11:26:06.696Z,16.60
2018-11-12T11:28:35.076Z,16.50
2018-11-12T11:31:03.521Z,16.60
2018-11-12T11:33:31.947Z,16.50
2018-11-12T11:36:00.343Z,16.50
2018-11-12T11:38:28.804Z,16.50
2018-11-12T11:40:57.171Z,16.50
2018-11-12T11:43:25.574Z,16.50
2018-11-12T11:45:53.991Z,16.50
2018-11-12T11:48:22.376Z,16.40
2018-11-12T11:50:50.736Z,16.40
2018-11-12T11:53:19.119Z,16.40
2018-11-12T11:55:47.507Z,16.30
2018-11-12T11:58:16.006Z,16.30
2018-11-12T12:00:44.428Z,16.30
2018-11-12T12:03:12.817Z,16.30
2018-11-12T12:05:41.191Z,16.30
2018-11-12T12:08:09.571Z,16.20
2018-11-12T12:10:37.935Z,16.30
2018-11-12T12:13:06.306Z,16.30
2018-11-12T12:15:34.655Z,16.20
2018-11-12T12:18:03.135Z,16.20
2018-11-12T12:20:31.615Z,16.20
2018-11-12T12:23:00.279Z,16.20
2018-11-12T12:25:28.740Z,16.20
2018-11-12T12:27:57.124Z,16.30
2018-11-12T12:30:27.749Z,16.20
2018-11-12T12:32:57.031Z,16.20
2018-11-12T12:35:25.649Z,16.30
2018-11-12T12:37:54.440Z,16.30
2018-11-12T12:40:23.801Z,16.30
2018-11-12T12:42:52.569Z,16.40
2018-11-12T12:45:22.668Z,16.30
2018-11-12T12:47:51.539Z,16.30
2018-11-12T12:50:20.292Z,16.40
2018-11-12T12:52:48.765Z,16.40
2018-11-12T12:55:17.893Z,16.50
2018-11-12T12:57:46.685Z,16.50
2018-11-12T13:00:31.716Z,16.50
2018-11-12T13:03:00.183Z,16.70
2018-11-12T13:05:28.630Z,16.70
2018-11-12T13:07:57.109Z,16.70
2018-11-12T13:10:25.756Z,16.80
2018-11-12T13:12:54.272Z,17.00
2018-11-12T13:15:22.678Z,17.10
2018-11-12T13:17:51.762Z,17.10
2018-11-12T13:20:21.896Z,17.20
2018-11-12T13:22:50.566Z,17.20
2018-11-12T13:25:19.154Z,17.10
2018-11-12T13:27:48.097Z,17.10
2018-11-12T13:30:20.918Z,17.10
2018-11-12T13:32:49.675Z,17.10
2018-11-12T13:35:23.025Z,17.10
2018-11-12T13:37:51.405Z,17.10
2018-11-12T13:40:22.808Z,17.10
2018-11-12T13:42:52.691Z,17.10
2018-11-12T13:45:21.542Z,17.20
2018-11-12T13:47:49.907Z,17.20
2018-11-12T13:50:19.709Z,17.20
2018-11-12T13:52:49.668Z,17.20
2018-11-12T13:55:19.312Z,17.30
2018-11-12T13:57:47.697Z,17.40
2018-11-12T14:00:18.599Z,17.40
2018-11-12T14:02:47.744Z,17.50
2018-11-12T14:05:17.436Z,17.50
2018-11-12T14:07:46.372Z,17.60
2018-11-12T14:10:16.170Z,17.60
2018-11-12T14:12:45.051Z,18.40
2018-11-12T14:15:15.179Z,18.30
2018-11-12T14:17:43.843Z,18.40
2018-11-12T14:20:12.334Z,18.00
2018-11-12T14:22:41.038Z,17.80
2018-11-12T14:25:11.570Z,17.80
2018-11-12T14:27:40.273Z,17.70
2018-11-12T14:30:10.803Z,17.70
2018-11-12T14:32:39.230Z,17.70
2018-11-12T14:35:08.385Z,17.70
2018-11-12T14:37:36.834Z,17.70
2018-11-12T14:40:06.523Z,17.70
2018-11-12T14:42:35.027Z,18.30
2018-11-12T14:45:03.589Z,18.10
2018-11-12T14:47:32.300Z,18.10
2018-11-12T14:50:00.766Z,18.30
2018-11-12T14:52:29.284Z,20.30
2018-11-12T14:54:57.738Z,21.20
2018-11-12T14:57:26.229Z,21.30
2018-11-12T14:59:54.646Z,20.20
2018-11-12T15:02:23.064Z,19.40
2018-11-12T15:04:51.456Z,19.10
2018-11-12T15:07:19.902Z,19.80
2018-11-12T15:09:48.329Z,20.30
2018-11-12T15:12:16.764Z,20.70
2018-11-12T15:14:45.202Z,20.00
2018-11-12T15:17:14.284Z,20.20
2018-11-12T15:19:42.685Z,19.90
2018-11-12T15:22:11.068Z,19.20
2018-11-12T15:24:39.543Z,18.60
2018-11-12T15:27:07.929Z,18.20
2018-11-12T15:29:36.879Z,18.10
2018-11-12T15:32:05.818Z,17.90
2018-11-12T15:34:34.210Z,17.80
2018-11-12T15:37:02.825Z,17.60
2018-11-12T15:39:31.041Z,17.40
2018-11-12T15:41:59.424Z,17.30
2018-11-12T15:44:27.764Z,17.20
2018-11-12T15:46:56.255Z,17.10
2018-11-12T15:49:24.669Z,17.00
2018-11-12T15:51:53.140Z,16.90
2018-11-12T15:54:21.542Z,16.90
2018-11-12T15:56:49.910Z,16.80
2018-11-12T15:59:18.357Z,16.80
2018-11-12T16:01:46.747Z,16.80
2018-11-12T16:04:15.163Z,16.80
2018-11-12T16:06:43.655Z,16.70
2018-11-12T16:09:14.599Z,16.60
2018-11-12T16:11:43.440Z,16.60
2018-11-12T16:14:11.976Z,16.60
2018-11-12T16:16:40.403Z,16.60
2018-11-12T16:19:09.711Z,16.60
2018-11-12T16:21:38.296Z,16.60
2018-11-12T16:24:07.087Z,16.60
2018-11-12T16:26:35.609Z,16.50
2018-11-12T16:29:04.332Z,16.50
2018-11-12T16:31:32.837Z,16.50
2018-11-12T16:34:01.283Z,16.50
2018-11-12T16:36:29.732Z,16.50
2018-11-12T16:38:58.159Z,16.50
2018-11-12T16:41:26.635Z,16.50
2018-11-12T16:43:55.071Z,16.50
2018-11-12T16:46:23.489Z,16.50
2018-11-12T16:48:51.898Z,16.50
2018-11-12T16:51:20.375Z,16.50
2018-11-12T16:53:48.810Z,16.50
2018-11-12T16:56:17.238Z,16.50
2018-11-12T16:58:45.725Z,16.50
2018-11-12T17:01:14.158Z,16.50
2018-11-12T17:03:42.536Z,16.50
2018-11-12T17:06:10.951Z,16.60
2018-11-12T17:08:39.381Z,16.50
2018-11-12T17:11:07.824Z,16.50
2018-11-12T17:13:36.325Z,16.50
2018-11-12T17:16:04.889Z,16.50
2018-11-12T17:18:33.331Z,16.50
2018-11-12T17:21:01.747Z,16.50
2018-11-12T17:23:30.177Z,16.40
2018-11-12T17:25:58.581Z,16.30
2018-11-12T17:28:26.992Z,16.20
2018-11-12T17:30:55.482Z,16.20
2018-11-12T17:33:23.898Z,16.20
2018-11-12T17:35:52.340Z,16.10
2018-11-12T17:38:20.740Z,16.00
2018-11-12T17:40:49.220Z,15.90
2018-11-12T17:43:17.743Z,15.90
2018-11-12T17:45:46.178Z,15.80
2018-11-12T17:48:14.581Z,15.70
2018-11-12T17:50:42.968Z,15.70
2018-11-12T17:53:11.412Z,15.60
2018-11-12T17:55:39.836Z,15.60
2018-11-12T17:58:08.238Z,15.50
2018-11-12T18:00:37.560Z,15.60
2018-11-12T18:03:06.452Z,15.70
2018-11-12T18:05:34.880Z,15.70
2018-11-12T18:08:03.407Z,15.80
2018-11-12T18:10:31.823Z,15.80
2018-11-12T18:13:01.122Z,15.80
2018-11-12T18:15:29.573Z,15.80
2018-11-12T18:17:57.990Z,15.80
2018-11-12T18:20:27.736Z,15.90
2018-11-12T18:22:56.655Z,15.80
2018-11-12T18:25:25.059Z,15.70
2018-11-12T18:27:54.091Z,15.60
2018-11-12T18:30:24.375Z,15.50
2018-11-12T18:32:53.735Z,15.40
2018-11-12T18:35:22.790Z,15.40
2018-11-12T18:37:51.249Z,15.40
2018-11-12T18:40:21.107Z,15.40
2018-11-12T18:42:49.831Z,15.30
2018-11-12T18:45:19.708Z,15.30
2018-11-12T18:47:48.118Z,15.40
2018-11-12T18:50:19.339Z,15.30
2018-11-12T18:52:47.954Z,15.30
2018-11-12T18:55:16.435Z,15.50
2018-11-12T18:57:45.556Z,15.50
2018-11-12T19:00:15.494Z,15.50
2018-11-12T19:02:44.071Z,15.60
2018-11-12T19:05:15.916Z,15.60
2018-11-12T19:07:45.530Z,15.70
2018-11-12T19:10:16.784Z,15.80
2018-11-12T19:12:45.887Z,15.80
2018-11-12T19:15:15.395Z,15.80
2018-11-12T19:17:45.084Z,15.70
2018-11-12T19:20:14.177Z,15.70
2018-11-12T19:22:42.542Z,15.70
2018-11-12T19:25:12.104Z,15.60
2018-11-12T19:27:41.004Z,15.60
2018-11-12T19:30:13.262Z,15.60
2018-11-12T19:32:41.818Z,15.60
2018-11-12T19:35:11.720Z,15.80
2018-11-12T19:37:40.100Z,15.80
2018-11-12T19:40:11.160Z,15.70
2018-11-12T19:42:39.630Z,15.80
2018-11-12T19:45:09.730Z,15.80
2018-11-12T19:47:38.149Z,15.70
2018-11-12T19:50:08.419Z,15.70
2018-11-12T19:52:36.903Z,15.70
2018-11-12T19:55:05.851Z,15.70
2018-11-12T19:57:34.287Z,15.70
2018-11-12T20:00:03.398Z,15.70
2018-11-12T20:02:32.687Z,15.60
2018-11-12T20:05:01.370Z,15.60
2018-11-12T20:07:29.757Z,15.60
2018-11-12T20:09:58.132Z,15.50
2018-11-12T20:12:26.490Z,15.50
2018-11-12T20:14:54.868Z,15.50
2018-11-12T20:17:23.287Z,15.60
2018-11-12T20:19:51.655Z,15.60
2018-11-12T20:22:20.029Z,15.60
2018-11-12T20:24:48.513Z,15.70
2018-11-12T20:27:16.888Z,15.80
2018-11-12T20:29:45.259Z,15.80
2018-11-12T20:32:13.631Z,15.80
2018-11-12T20:34:42.013Z,15.80
2018-11-12T20:37:10.390Z,15.80
2018-11-12T20:39:38.727Z,15.70
2018-11-12T20:42:07.138Z,15.60
2018-11-12T20:44:35.502Z,15.60
2018-11-12T20:47:03.997Z,15.50
2018-11-12T20:49:32.373Z,15.60
2018-11-12T20:52:00.840Z,15.60
2018-11-12T20:54:29.392Z,15.60
2018-11-12T20:56:57.805Z,15.50
2018-11-12T20:59:26.167Z,15.50
2018-11-12T21:01:54.579Z,15.40
2018-11-12T21:04:22.974Z,15.40
2018-11-12T21:06:51.354Z,15.30
2018-11-12T21:09:19.729Z,15.30
2018-11-12T21:11:48.146Z,15.20
2018-11-12T21:14:16.599Z,15.30
2018-11-12T21:16:44.976Z,15.30
2018-11-12T21:19:13.417Z,15.30
2018-11-12T21:21:41.751Z,15.30
2018-11-12T21:24:10.170Z,15.40
2018-11-12T21:26:38.523Z,15.40
2018-11-12T21:29:07.233Z,15.40
2018-11-12T21:31:35.511Z,15.40
2018-11-12T21:34:03.917Z,15.30
2018-11-12T21:36:32.389Z,15.30
2018-11-12T21:39:00.759Z,15.30
2018-11-12T21:41:29.107Z,15.30
2018-11-12T21:43:57.534Z,15.30
2018-11-12T21:46:25.907Z,15.30
2018-11-12T21:48:54.347Z,15.30
2018-11-12T21:51:22.686Z,15.30
2018-11-12T21:53:51.090Z,15.30
2018-11-12T21:56:19.520Z,15.30
2018-11-12T21:58:48.008Z,15.30
2018-11-12T22:01:16.275Z,15.40
2018-11-12T22:03:44.627Z,15.40
2018-11-12T22:06:12.983Z,15.40
2018-11-12T22:08:41.453Z,15.40
2018-11-12T22:11:09.813Z,15.40
2018-11-12T22:13:38.147Z,15.40
2018-11-12T22:16:07.106Z,15.40
2018-11-12T22:18:35.556Z,15.40
2018-11-12T22:21:03.898Z,15.40
2018-11-12T22:23:32.316Z,15.40
2018-11-12T22:26:00.958Z,15.30
2018-11-12T22:28:34.870Z,15.30
2018-11-12T22:31:03.291Z,15.30
2018-11-12T22:33:31.639Z,15.40
2018-11-12T22:36:00.020Z,15.40
2018-11-12T22:38:28.380Z,15.30
2018-11-12T22:40:56.772Z,15.40
2018-11-12T22:43:25.143Z,15.30
2018-11-12T22:45:53.630Z,15.30
2018-11-12T22:48:21.895Z,15.30
2018-11-12T22:50:50.252Z,15.30
2018-11-12T22:53:18.586Z,15.30
2018-11-12T22:55:46.936Z,15.30
2018-11-12T22:58:15.278Z,15.30
2018-11-12T23:00:44.770Z,15.30
2018-11-12T23:03:13.129Z,15.20
2018-11-12T23:05:41.511Z,15.20
2018-11-12T23:08:09.843Z,15.20
2018-11-12T23:10:38.689Z,15.10
2018-11-12T23:13:07.095Z,15.00
2018-11-12T23:15:35.479Z,15.00
2018-11-12T23:18:03.963Z,14.80
2018-11-12T23:20:32.433Z,14.70
2018-11-12T23:23:00.849Z,14.70
2018-11-12T23:25:29.281Z,14.50
2018-11-12T23:27:57.690Z,14.40
2018-11-12T23:30:26.278Z,14.30
2018-11-12T23:32:54.854Z,14.10
2018-11-12T23:35:24.551Z,14.10
2018-11-12T23:37:53.095Z,14.10
2018-11-12T23:40:21.503Z,14.10
2018-11-12T23:42:49.935Z,14.00
2018-11-12T23:45:18.320Z,14.10
2018-11-12T23:47:46.721Z,14.00
2018-11-12T23:50:16.673Z,14.10
2018-11-12T23:52:46.118Z,13.90
2018-11-12T23:55:14.862Z,14.00
2018-11-12T23:57:43.576Z,14.00
